createdAt,value
2017-06-30T00:01:04.153Z,16.30
2017-06-30T00:03:32.536Z,16.30
2017-06-30T00:06:00.959Z,16.20
2017-06-30T00:08:29.337Z,16.20
2017-06-30T00:10:57.842Z,16.10
2017-06-30T00:13:26.252Z,16.20
2017-06-30T00:15:54.624Z,16.20
2017-06-30T00:18:23.013Z,16.20
2017-06-30T00:20:51.414Z,16.20
2017-06-30T00:23:20.573Z,16.10
2017-06-30T00:25:48.964Z,16.10
2017-06-30T00:28:17.367Z,16.10
2017-06-30T00:30:46.577Z,16.10
2017-06-30T00:33:14.968Z,16.10
2017-06-30T00:35:43.643Z,16.10
2017-06-30T00:38:12.290Z,16.10
2017-06-30T00:40:40.683Z,16.10
2017-06-30T00:43:09.874Z,16.10
2017-06-30T00:45:38.269Z,16.10
2017-06-30T00:48:07.426Z,16.00
2017-06-30T00:50:35.843Z,16.00
2017-06-30T00:53:04.255Z,16.00
2017-06-30T00:55:32.634Z,16.00
2017-06-30T00:58:01.052Z,16.00
2017-06-30T01:00:29.456Z,16.10
2017-06-30T01:02:58.612Z,16.00
2017-06-30T01:05:27.070Z,15.90
2017-06-30T01:07:55.456Z,16.00
2017-06-30T01:10:23.829Z,16.00
2017-06-30T01:12:52.230Z,15.90
2017-06-30T01:15:20.632Z,15.80
2017-06-30T01:17:49.041Z,15.80
2017-06-30T01:20:17.458Z,15.80
2017-06-30T01:22:45.841Z,15.80
2017-06-30T01:25:14.236Z,15.70
2017-06-30T01:27:42.643Z,15.60
2017-06-30T01:30:11.046Z,15.60
2017-06-30T01:32:39.438Z,15.50
2017-06-30T01:35:07.843Z,15.50
2017-06-30T01:37:36.233Z,15.40
2017-06-30T01:40:04.607Z,15.30
2017-06-30T01:42:33.010Z,15.20
2017-06-30T01:45:02.146Z,15.10
2017-06-30T01:47:30.543Z,15.10
2017-06-30T01:49:58.959Z,15.00
2017-06-30T01:52:28.117Z,14.90
2017-06-30T01:54:56.533Z,14.90
2017-06-30T01:57:25.011Z,14.80
2017-06-30T01:59:54.221Z,14.70
2017-06-30T02:02:22.617Z,14.70
2017-06-30T02:04:51.031Z,14.70
2017-06-30T02:07:19.421Z,14.60
2017-06-30T02:09:47.825Z,14.60
2017-06-30T02:12:17.000Z,14.50
2017-06-30T02:14:45.374Z,14.40
2017-06-30T02:17:13.764Z,14.40
2017-06-30T02:19:42.185Z,14.40
2017-06-30T02:22:10.572Z,14.40
2017-06-30T02:24:38.956Z,14.30
2017-06-30T02:27:07.366Z,14.30
2017-06-30T02:29:35.786Z,14.30
2017-06-30T02:32:04.932Z,14.20
2017-06-30T02:34:33.329Z,14.20
2017-06-30T02:37:01.707Z,14.20
2017-06-30T02:39:30.093Z,14.20
2017-06-30T02:41:59.277Z,14.20
2017-06-30T02:44:27.678Z,14.20
2017-06-30T02:46:56.817Z,14.10
2017-06-30T02:49:25.221Z,14.10
2017-06-30T02:51:53.610Z,14.10
2017-06-30T02:54:21.990Z,14.10
2017-06-30T02:56:50.389Z,14.10
2017-06-30T02:59:19.533Z,14.10
2017-06-30T03:01:47.939Z,14.10
2017-06-30T03:04:16.357Z,14.10
2017-06-30T03:06:44.747Z,14.10
2017-06-30T03:09:13.229Z,14.00
2017-06-30T03:11:41.654Z,14.10
2017-06-30T03:14:10.080Z,14.00
2017-06-30T03:16:38.468Z,14.00
2017-06-30T03:19:06.875Z,14.10
2017-06-30T03:21:35.266Z,14.00
2017-06-30T03:24:03.655Z,14.00
2017-06-30T03:26:32.846Z,14.00
2017-06-30T03:29:02.005Z,14.10
2017-06-30T03:31:30.390Z,14.00
2017-06-30T03:33:58.809Z,14.00
2017-06-30T03:36:27.967Z,14.10
2017-06-30T03:38:56.340Z,14.00
2017-06-30T03:41:24.755Z,14.10
2017-06-30T03:43:53.136Z,14.10
2017-06-30T03:46:21.517Z,14.10
2017-06-30T03:48:49.967Z,14.10
2017-06-30T03:51:18.357Z,14.10
2017-06-30T03:53:47.526Z,14.10
2017-06-30T03:56:15.945Z,14.10
2017-06-30T03:58:45.105Z,14.20
2017-06-30T04:01:13.489Z,14.10
2017-06-30T04:03:41.912Z,14.10
2017-06-30T04:06:11.145Z,14.20
2017-06-30T04:08:39.533Z,14.10
2017-06-30T04:11:07.940Z,14.10
2017-06-30T04:13:36.336Z,14.10
2017-06-30T04:16:05.574Z,14.20
2017-06-30T04:18:34.019Z,14.20
2017-06-30T04:21:02.429Z,14.20
2017-06-30T04:23:30.809Z,14.20
2017-06-30T04:25:59.220Z,14.20
2017-06-30T04:28:27.614Z,14.10
2017-06-30T04:30:56.016Z,14.10
2017-06-30T04:33:25.196Z,14.20
2017-06-30T04:35:53.585Z,14.10
2017-06-30T04:38:22.755Z,14.20
2017-06-30T04:40:51.221Z,14.20
2017-06-30T04:43:19.613Z,14.20
2017-06-30T04:45:48.013Z,14.20
2017-06-30T04:48:17.182Z,14.20
2017-06-30T04:50:45.556Z,14.20
2017-06-30T04:53:13.951Z,14.20
2017-06-30T04:55:42.370Z,14.30
2017-06-30T04:58:10.746Z,14.30
2017-06-30T05:00:39.144Z,14.30
2017-06-30T05:03:07.578Z,14.30
2017-06-30T05:05:36.733Z,14.30
2017-06-30T05:08:05.112Z,14.30
2017-06-30T05:10:33.527Z,14.30
2017-06-30T05:13:02.681Z,14.40
2017-06-30T05:15:31.154Z,14.40
2017-06-30T05:17:59.557Z,14.50
2017-06-30T05:20:28.046Z,14.60
2017-06-30T05:22:56.424Z,14.60
2017-06-30T05:25:24.829Z,14.60
2017-06-30T05:27:53.977Z,14.70
2017-06-30T05:30:22.352Z,14.70
2017-06-30T05:32:50.762Z,14.80
2017-06-30T05:35:19.161Z,14.80
2017-06-30T05:37:47.558Z,14.90
2017-06-30T05:40:16.059Z,15.20
2017-06-30T05:42:44.508Z,15.40
2017-06-30T05:45:12.917Z,15.80
2017-06-30T05:47:41.316Z,15.90
2017-06-30T05:50:09.767Z,16.10
2017-06-30T05:52:38.224Z,16.20
2017-06-30T05:55:07.450Z,16.30
2017-06-30T05:57:35.825Z,16.30
2017-06-30T06:00:04.213Z,16.50
2017-06-30T06:02:32.616Z,16.60
2017-06-30T06:05:00.993Z,16.70
2017-06-30T06:07:29.381Z,16.80
2017-06-30T06:09:57.787Z,16.80
2017-06-30T06:12:26.954Z,17.10
2017-06-30T06:14:55.329Z,17.00
2017-06-30T06:17:23.719Z,17.20
2017-06-30T06:19:52.091Z,17.30
2017-06-30T06:22:20.475Z,17.40
2017-06-30T06:24:48.934Z,17.60
2017-06-30T06:27:17.319Z,17.80
2017-06-30T06:29:45.698Z,17.90
2017-06-30T06:32:14.123Z,17.90
2017-06-30T06:34:42.577Z,18.00
2017-06-30T06:37:11.732Z,18.00
2017-06-30T06:39:40.134Z,18.00
2017-06-30T06:42:08.174Z,18.00
2017-06-30T06:44:36.556Z,17.90
2017-06-30T06:47:04.958Z,18.00
2017-06-30T06:49:33.357Z,18.00
2017-06-30T06:52:02.516Z,18.40
2017-06-30T06:54:30.924Z,18.40
2017-06-30T06:56:59.313Z,18.40
2017-06-30T06:59:28.482Z,18.20
2017-06-30T07:01:56.902Z,18.20
2017-06-30T07:04:25.316Z,18.40
2017-06-30T07:06:53.707Z,18.70
2017-06-30T07:09:22.120Z,18.60
2017-06-30T07:11:51.290Z,18.40
2017-06-30T07:14:19.685Z,18.40
2017-06-30T07:16:48.097Z,18.30
2017-06-30T07:19:16.508Z,18.30
2017-06-30T07:21:44.912Z,18.30
2017-06-30T07:24:13.317Z,18.10
2017-06-30T07:26:42.486Z,18.70
2017-06-30T07:29:10.884Z,18.70
2017-06-30T07:31:40.060Z,18.90
2017-06-30T07:34:08.458Z,18.90
2017-06-30T07:36:37.635Z,18.80
2017-06-30T07:39:06.055Z,18.80
2017-06-30T07:41:34.455Z,19.00
2017-06-30T07:44:02.844Z,19.10
2017-06-30T07:46:31.064Z,19.20
2017-06-30T07:49:00.242Z,19.60
2017-06-30T07:51:28.627Z,19.60
2017-06-30T07:53:57.031Z,19.70
2017-06-30T07:56:25.439Z,19.80
2017-06-30T07:58:53.834Z,19.90
2017-06-30T08:01:22.253Z,19.80
2017-06-30T08:03:51.428Z,19.90
2017-06-30T08:06:19.826Z,19.90
2017-06-30T08:08:49.019Z,20.20
2017-06-30T08:11:17.391Z,20.10
2017-06-30T08:13:45.782Z,19.80
2017-06-30T08:16:15.108Z,19.80
2017-06-30T08:18:43.505Z,19.80
2017-06-30T08:21:11.893Z,19.80
2017-06-30T08:23:40.308Z,19.70
2017-06-30T08:26:09.505Z,19.90
2017-06-30T08:28:38.667Z,20.00
2017-06-30T08:31:07.083Z,20.00
2017-06-30T08:33:35.505Z,20.00
2017-06-30T08:36:03.907Z,19.90
2017-06-30T08:38:32.310Z,20.00
2017-06-30T08:41:00.698Z,19.70
2017-06-30T08:43:29.102Z,19.40
2017-06-30T08:45:57.522Z,19.10
2017-06-30T08:48:25.899Z,18.60
2017-06-30T08:50:54.315Z,18.40
2017-06-30T08:53:22.750Z,18.20
2017-06-30T08:55:51.153Z,18.20
2017-06-30T08:58:19.616Z,18.40
2017-06-30T09:00:48.025Z,18.60
2017-06-30T09:03:16.444Z,18.80
2017-06-30T09:05:44.840Z,19.00
2017-06-30T09:08:13.273Z,19.10
2017-06-30T09:10:42.442Z,19.10
2017-06-30T09:13:10.871Z,19.10
2017-06-30T09:15:39.287Z,18.90
2017-06-30T09:18:07.669Z,18.90
2017-06-30T09:20:38.715Z,18.70
2017-06-30T09:23:07.212Z,18.60
2017-06-30T09:25:36.381Z,18.40
2017-06-30T09:28:04.815Z,18.40
2017-06-30T09:30:33.189Z,18.50
2017-06-30T09:33:01.573Z,18.70
2017-06-30T09:35:30.002Z,19.10
2017-06-30T09:37:58.397Z,19.60
2017-06-30T09:40:26.868Z,19.70
2017-06-30T09:42:55.376Z,19.60
2017-06-30T09:45:24.561Z,19.00
2017-06-30T09:47:53.725Z,18.80
2017-06-30T09:50:22.146Z,18.70
2017-06-30T09:52:51.325Z,18.60
2017-06-30T09:55:19.719Z,18.50
2017-06-30T09:57:48.903Z,19.10
2017-06-30T10:00:17.307Z,19.10
2017-06-30T10:02:45.697Z,19.50
2017-06-30T10:05:14.101Z,19.80
2017-06-30T10:07:42.484Z,19.60
2017-06-30T10:10:10.901Z,19.70
2017-06-30T10:12:40.079Z,20.00
2017-06-30T10:15:08.469Z,19.90
2017-06-30T10:17:36.842Z,20.10
2017-06-30T10:20:05.262Z,20.10
2017-06-30T10:22:33.650Z,20.00
2017-06-30T10:25:02.056Z,19.80
2017-06-30T10:27:30.483Z,19.70
2017-06-30T10:29:58.871Z,19.70
2017-06-30T10:32:27.268Z,19.90
2017-06-30T10:34:55.687Z,19.90
2017-06-30T10:37:24.063Z,19.90
2017-06-30T10:39:52.465Z,19.70
2017-06-30T10:42:21.634Z,19.60
2017-06-30T10:44:50.017Z,19.60
2017-06-30T10:47:18.415Z,19.80
2017-06-30T10:49:46.817Z,20.00
2017-06-30T10:52:15.192Z,20.40
2017-06-30T10:54:43.580Z,20.70
2017-06-30T10:57:12.031Z,20.90
2017-06-30T10:59:41.185Z,21.10
2017-06-30T11:02:09.599Z,21.00
2017-06-30T11:04:38.008Z,20.90
2017-06-30T11:07:06.397Z,20.80
2017-06-30T11:09:34.771Z,20.80
2017-06-30T11:12:03.185Z,20.90
2017-06-30T11:14:31.584Z,20.70
2017-06-30T11:16:59.969Z,20.80
2017-06-30T11:19:28.413Z,21.20
2017-06-30T11:21:56.813Z,21.50
2017-06-30T11:24:25.194Z,21.50
2017-06-30T11:26:53.613Z,21.30
2017-06-30T11:29:21.991Z,21.30
2017-06-30T11:31:50.381Z,21.30
2017-06-30T11:34:18.795Z,21.30
2017-06-30T11:36:47.189Z,21.00
2017-06-30T11:39:15.580Z,20.90
2017-06-30T11:41:43.806Z,20.70
2017-06-30T11:44:12.208Z,20.40
2017-06-30T11:46:40.598Z,20.30
2017-06-30T11:49:08.998Z,20.50
2017-06-30T11:51:39.207Z,20.90
2017-06-30T11:54:07.687Z,21.30
2017-06-30T11:56:36.866Z,21.50
2017-06-30T11:59:05.277Z,21.50
2017-06-30T12:01:33.670Z,21.60
2017-06-30T12:04:02.095Z,21.60
2017-06-30T12:06:30.476Z,21.40
2017-06-30T12:08:58.888Z,21.50
2017-06-30T12:11:27.313Z,21.60
2017-06-30T12:13:55.704Z,21.90
2017-06-30T12:16:24.160Z,22.20
2017-06-30T12:18:52.589Z,22.20
2017-06-30T12:21:20.976Z,22.10
2017-06-30T12:23:49.380Z,22.30
2017-06-30T12:26:17.818Z,22.50
2017-06-30T12:28:46.214Z,22.40
2017-06-30T12:31:14.608Z,22.30
2017-06-30T12:33:43.030Z,22.10
2017-06-30T12:36:11.435Z,22.10
2017-06-30T12:38:39.835Z,22.00
2017-06-30T12:41:08.333Z,22.30
2017-06-30T12:43:36.745Z,22.50
2017-06-30T12:46:05.169Z,22.70
2017-06-30T12:48:34.448Z,22.80
2017-06-30T12:51:02.859Z,22.80
2017-06-30T12:53:31.253Z,22.90
2017-06-30T12:55:59.672Z,22.70
2017-06-30T12:58:28.056Z,22.80
2017-06-30T13:00:56.435Z,22.60
2017-06-30T13:03:24.841Z,22.60
2017-06-30T13:05:54.040Z,22.80
2017-06-30T13:08:23.208Z,22.80
2017-06-30T13:10:51.612Z,22.80
2017-06-30T13:13:20.768Z,22.80
2017-06-30T13:15:49.159Z,22.80
2017-06-30T13:18:17.773Z,22.60
2017-06-30T13:20:46.160Z,22.40
2017-06-30T13:23:14.658Z,22.50
2017-06-30T13:25:43.060Z,22.80
2017-06-30T13:28:11.448Z,22.80
2017-06-30T13:30:39.822Z,22.80
2017-06-30T13:33:08.260Z,22.70
2017-06-30T13:35:36.754Z,22.60
2017-06-30T13:38:05.158Z,22.60
2017-06-30T13:40:33.598Z,22.40
2017-06-30T13:43:01.994Z,22.20
2017-06-30T13:45:30.384Z,22.00
2017-06-30T13:47:58.789Z,21.80
2017-06-30T13:50:27.178Z,21.70
2017-06-30T13:52:56.347Z,21.70
2017-06-30T13:55:24.826Z,21.70
2017-06-30T13:57:53.210Z,21.80
2017-06-30T14:00:21.617Z,21.70
2017-06-30T14:02:50.029Z,21.50
2017-06-30T14:05:18.431Z,21.50
2017-06-30T14:07:46.852Z,21.60
2017-06-30T14:10:16.042Z,21.30
2017-06-30T14:12:44.453Z,21.30
2017-06-30T14:15:12.857Z,21.10
2017-06-30T14:17:41.286Z,20.90
2017-06-30T14:20:09.689Z,20.70
2017-06-30T14:22:38.093Z,20.50
2017-06-30T14:25:06.549Z,20.40
2017-06-30T14:27:34.952Z,20.60
2017-06-30T14:30:03.342Z,20.60
2017-06-30T14:32:31.749Z,20.90
2017-06-30T14:35:00.144Z,20.80
2017-06-30T14:37:29.291Z,20.50
2017-06-30T14:39:57.725Z,20.50
2017-06-30T14:42:26.909Z,20.60
2017-06-30T14:44:55.312Z,20.60
2017-06-30T14:47:23.716Z,20.60
2017-06-30T14:49:52.130Z,20.60
2017-06-30T14:52:20.537Z,20.70
2017-06-30T14:54:49.709Z,20.70
2017-06-30T14:57:18.094Z,20.70
2017-06-30T14:59:46.482Z,20.80
2017-06-30T15:02:15.672Z,20.90
2017-06-30T15:04:44.087Z,20.90
2017-06-30T15:07:12.480Z,21.10
2017-06-30T15:09:40.883Z,21.10
2017-06-30T15:12:09.290Z,21.40
2017-06-30T15:14:38.457Z,21.50
2017-06-30T15:17:06.861Z,21.50
2017-06-30T15:19:36.030Z,21.30
2017-06-30T15:22:04.423Z,21.30
2017-06-30T15:24:32.851Z,21.20
2017-06-30T15:27:01.245Z,21.10
2017-06-30T15:29:29.674Z,21.30
2017-06-30T15:31:58.865Z,21.10
2017-06-30T15:34:27.252Z,21.10
2017-06-30T15:36:55.680Z,20.40
2017-06-30T15:39:24.107Z,19.60
2017-06-30T15:41:53.260Z,18.50
2017-06-30T15:44:21.649Z,18.40
2017-06-30T15:46:50.062Z,18.00
2017-06-30T15:49:19.217Z,17.50
2017-06-30T15:51:47.597Z,17.50
2017-06-30T15:54:16.001Z,17.20
2017-06-30T15:56:44.384Z,17.20
2017-06-30T15:59:12.779Z,17.10
2017-06-30T16:01:41.947Z,17.10
2017-06-30T16:04:10.337Z,17.10
2017-06-30T16:06:38.715Z,17.20
2017-06-30T16:09:07.116Z,17.30
2017-06-30T16:11:36.272Z,17.50
2017-06-30T16:14:04.660Z,17.50
2017-06-30T16:16:33.292Z,17.70
2017-06-30T16:19:01.687Z,17.90
2017-06-30T16:21:30.392Z,18.00
2017-06-30T16:23:58.811Z,18.10
2017-06-30T16:26:27.958Z,18.30
2017-06-30T16:28:56.344Z,18.30
2017-06-30T16:31:24.764Z,18.40
2017-06-30T16:33:53.921Z,18.50
2017-06-30T16:36:22.341Z,18.50
2017-06-30T16:38:51.537Z,18.70
2017-06-30T16:41:20.694Z,18.70
2017-06-30T16:43:49.078Z,18.70
2017-06-30T16:46:17.499Z,18.70
2017-06-30T16:48:45.898Z,18.70
2017-06-30T16:51:14.279Z,18.70
2017-06-30T16:53:42.699Z,18.80
2017-06-30T16:56:11.882Z,19.00
2017-06-30T16:58:40.270Z,19.00
2017-06-30T17:01:08.687Z,19.10
2017-06-30T17:03:37.077Z,19.20
2017-06-30T17:06:05.467Z,19.30
2017-06-30T17:08:33.871Z,19.30
2017-06-30T17:11:02.244Z,19.30
2017-06-30T17:13:30.649Z,19.20
2017-06-30T17:15:59.068Z,19.20
2017-06-30T17:18:27.457Z,19.10
2017-06-30T17:20:55.860Z,19.20
2017-06-30T17:23:24.492Z,19.20
2017-06-30T17:25:53.638Z,19.10
2017-06-30T17:28:22.033Z,19.10
2017-06-30T17:30:50.452Z,19.00
2017-06-30T17:33:18.828Z,18.80
2017-06-30T17:35:47.205Z,18.50
2017-06-30T17:38:15.619Z,18.40
2017-06-30T17:40:44.009Z,18.30
2017-06-30T17:43:12.400Z,18.30
2017-06-30T17:45:40.848Z,18.30
2017-06-30T17:48:09.237Z,18.30
2017-06-30T17:50:37.640Z,18.20
2017-06-30T17:53:06.046Z,18.10
2017-06-30T17:55:35.214Z,18.00
2017-06-30T17:58:03.603Z,18.00
2017-06-30T18:00:32.009Z,17.90
2017-06-30T18:03:00.394Z,17.90
2017-06-30T18:05:28.816Z,17.90
2017-06-30T18:07:57.236Z,17.80
2017-06-30T18:10:26.389Z,17.60
2017-06-30T18:12:54.793Z,17.60
2017-06-30T18:15:23.197Z,17.50
2017-06-30T18:17:51.599Z,17.50
2017-06-30T18:20:20.003Z,17.40
2017-06-30T18:22:48.493Z,17.40
2017-06-30T18:25:16.935Z,17.30
2017-06-30T18:27:45.321Z,17.30
2017-06-30T18:30:13.725Z,17.30
2017-06-30T18:32:42.117Z,17.30
2017-06-30T18:35:10.498Z,17.20
2017-06-30T18:37:39.477Z,17.10
2017-06-30T18:40:07.866Z,17.20
2017-06-30T18:42:36.296Z,17.20
2017-06-30T18:45:04.714Z,17.20
2017-06-30T18:47:33.108Z,17.10
2017-06-30T18:50:01.497Z,17.10
2017-06-30T18:52:29.902Z,17.10
2017-06-30T18:54:59.071Z,17.10
2017-06-30T18:57:27.444Z,17.10
2017-06-30T18:59:55.858Z,17.10
2017-06-30T19:02:24.252Z,17.10
2017-06-30T19:04:52.747Z,17.00
2017-06-30T19:07:21.160Z,17.00
2017-06-30T19:09:49.539Z,17.00
2017-06-30T19:12:17.929Z,17.00
2017-06-30T19:14:46.343Z,16.90
2017-06-30T19:17:14.737Z,16.80
2017-06-30T19:19:43.126Z,16.80
2017-06-30T19:22:13.198Z,16.70
2017-06-30T19:24:42.349Z,16.70
2017-06-30T19:27:10.721Z,16.60
2017-06-30T19:29:39.122Z,16.60
2017-06-30T19:32:07.501Z,16.60
2017-06-30T19:34:35.892Z,16.50
2017-06-30T19:37:04.304Z,16.50
2017-06-30T19:39:32.711Z,16.50
2017-06-30T19:42:01.099Z,16.50
2017-06-30T19:44:29.788Z,16.40
2017-06-30T19:46:58.226Z,16.40
2017-06-30T19:49:26.722Z,16.30
2017-06-30T19:51:55.172Z,16.30
2017-06-30T19:54:24.328Z,16.30
2017-06-30T19:56:52.709Z,16.30
2017-06-30T19:59:21.120Z,16.20
2017-06-30T20:01:50.362Z,16.20
2017-06-30T20:04:18.770Z,16.20
2017-06-30T20:06:47.190Z,16.20
2017-06-30T20:09:15.581Z,16.10
2017-06-30T20:11:43.968Z,16.10
2017-06-30T20:14:12.406Z,16.10
2017-06-30T20:16:40.807Z,15.90
2017-06-30T20:19:09.183Z,16.00
2017-06-30T20:21:37.603Z,16.00
2017-06-30T20:24:05.999Z,15.90
2017-06-30T20:26:34.424Z,15.90
2017-06-30T20:29:02.822Z,15.90
2017-06-30T20:31:31.265Z,15.90
2017-06-30T20:34:00.445Z,15.90
2017-06-30T20:36:29.628Z,16.00
2017-06-30T20:38:58.118Z,16.00
2017-06-30T20:41:26.538Z,16.00
2017-06-30T20:43:54.973Z,16.00
2017-06-30T20:46:24.143Z,16.00
2017-06-30T20:48:52.582Z,16.00
2017-06-30T20:51:21.010Z,15.90
2017-06-30T20:53:49.250Z,15.90
2017-06-30T20:56:17.661Z,15.90
2017-06-30T20:58:46.104Z,15.90
2017-06-30T21:01:14.493Z,15.90
2017-06-30T21:03:42.902Z,15.80
2017-06-30T21:06:12.128Z,15.80
2017-06-30T21:08:41.291Z,15.80
2017-06-30T21:11:09.690Z,15.70
2017-06-30T21:13:38.195Z,15.80
2017-06-30T21:16:09.619Z,15.80
2017-06-30T21:18:38.023Z,15.70
2017-06-30T21:21:07.194Z,15.80
2017-06-30T21:23:35.578Z,15.80
2017-06-30T21:26:04.409Z,15.80
2017-06-30T21:28:32.797Z,15.80
2017-06-30T21:31:01.233Z,15.80
2017-06-30T21:33:29.681Z,15.80
2017-06-30T21:35:58.147Z,15.80
2017-06-30T21:38:26.603Z,15.80
2017-06-30T21:40:55.209Z,15.80
2017-06-30T21:43:23.596Z,15.80
2017-06-30T21:45:52.027Z,15.80
2017-06-30T21:48:20.664Z,15.80
2017-06-30T21:50:49.187Z,15.80
2017-06-30T21:53:17.604Z,15.80
2017-06-30T21:55:46.042Z,15.80
2017-06-30T21:58:15.233Z,15.90
2017-06-30T22:00:43.758Z,15.80
2017-06-30T22:03:12.175Z,15.90
2017-06-30T22:05:40.565Z,16.00
2017-06-30T22:08:10.294Z,16.00
2017-06-30T22:10:38.737Z,16.00
2017-06-30T22:13:07.147Z,16.10
2017-06-30T22:15:35.560Z,16.10
2017-06-30T22:18:03.978Z,16.00
2017-06-30T22:20:32.385Z,16.10
2017-06-30T22:23:01.535Z,16.10
2017-06-30T22:25:29.965Z,16.10
2017-06-30T22:27:58.375Z,16.00
2017-06-30T22:30:26.797Z,16.10
2017-06-30T22:32:55.996Z,16.10
2017-06-30T22:35:25.195Z,16.20
2017-06-30T22:37:54.366Z,16.10
2017-06-30T22:40:22.777Z,16.10
2017-06-30T22:42:51.945Z,16.10
2017-06-30T22:45:20.360Z,16.10
2017-06-30T22:47:48.979Z,16.10
2017-06-30T22:50:17.391Z,16.10
2017-06-30T22:52:45.795Z,16.10
2017-06-30T22:55:14.957Z,16.10
2017-06-30T22:57:43.353Z,16.10
2017-06-30T23:00:11.736Z,16.10
2017-06-30T23:02:40.912Z,16.10
2017-06-30T23:05:09.301Z,16.10
2017-06-30T23:07:37.690Z,16.10
2017-06-30T23:10:06.860Z,16.10
2017-06-30T23:12:35.265Z,16.00
2017-06-30T23:15:04.420Z,16.00
2017-06-30T23:17:32.823Z,16.00
2017-06-30T23:20:01.250Z,16.00
2017-06-30T23:22:29.649Z,16.00
2017-06-30T23:24:58.170Z,16.00
2017-06-30T23:27:25.900Z,16.00
2017-06-30T23:29:53.943Z,15.90
2017-06-30T23:32:21.722Z,16.00
2017-06-30T23:34:49.769Z,16.00
2017-06-30T23:37:18.181Z,16.00
2017-06-30T23:39:46.259Z,16.00
2017-06-30T23:42:14.319Z,16.00
2017-06-30T23:44:44.208Z,16.00
2017-06-30T23:47:12.836Z,16.00
2017-06-30T23:49:46.320Z,16.00
2017-06-30T23:52:17.505Z,16.00
2017-06-30T23:54:46.260Z,16.00
2017-06-30T23:57:15.873Z,15.80
2017-06-30T23:59:45.187Z,15.70
